Alvin, Illinois
Current Conditions -  °F | °C
As of 3:55 AM on Thursday 23 Oct 2014 (Local Time) from KDNV Reporting Station
Haze Haze  
Wind Chill:   Ceiling: Unl
Heat Index:   Visibility: 3mi
Dew Point:   Wind: 0mph
Humidity: 95%   Direction: NA
Pressure: 30.22"   Gusts: NA
Location:  40.31°N, 87.61°W
Report Text: KDNV 230855Z AUTO 00000KT 3SM BR CLR 04/03 A3022 RMK AO2 T00350027
Loading
Personal Weather Stations






























Interactive Weather Map
Tropical Storm Tracking
New forecast layout! Learn more

10-Day Weather Forecast

Advertisements
Track Severe Weather on mobile